sensor_id;sensor_type;location;lat;lon;timestamp;temperature;humidity
23311;DHT22;11828;51.508;18.118;2023-04-06T00:02:17;17.80;27.60
23311;DHT22;11828;51.508;18.118;2023-04-06T00:04:44;18.50;27.80
23311;DHT22;11828;51.508;18.118;2023-04-06T00:07:10;18.50;27.60
23311;DHT22;11828;51.508;18.118;2023-04-06T00:09:36;18.50;26.90
23311;DHT22;11828;51.508;18.118;2023-04-06T00:12:02;18.60;29.40
23311;DHT22;11828;51.508;18.118;2023-04-06T00:14:28;18.60;25.40
23311;DHT22;11828;51.508;18.118;2023-04-06T00:16:55;18.50;26.20
23311;DHT22;11828;51.508;18.118;2023-04-06T00:19:21;18.40;26.20
23311;DHT22;11828;51.508;18.118;2023-04-06T00:21:47;18.60;28.70
23311;DHT22;11828;51.508;18.118;2023-04-06T00:24:14;18.60;25.10
23311;DHT22;11828;51.508;18.118;2023-04-06T00:26:40;18.80;27.50
23311;DHT22;11828;51.508;18.118;2023-04-06T00:31:33;18.80;27.10
23311;DHT22;11828;51.508;18.118;2023-04-06T00:33:59;18.90;27.20
23311;DHT22;11828;51.508;18.118;2023-04-06T00:36:25;18.90;26.50
23311;DHT22;11828;51.508;18.118;2023-04-06T00:38:52;19.20;25.50
23311;DHT22;11828;51.508;18.118;2023-04-06T00:41:18;19.00;29.60
23311;DHT22;11828;51.508;18.118;2023-04-06T00:46:11;19.10;24.70
23311;DHT22;11828;51.508;18.118;2023-04-06T00:48:37;19.10;24.90
23311;DHT22;11828;51.508;18.118;2023-04-06T00:51:04;19.10;24.90
23311;DHT22;11828;51.508;18.118;2023-04-06T00:53:31;19.20;24.90
23311;DHT22;11828;51.508;18.118;2023-04-06T00:55:57;19.30;24.90
23311;DHT22;11828;51.508;18.118;2023-04-06T00:58:24;19.40;25.10
23311;DHT22;11828;51.508;18.118;2023-04-06T01:00:50;19.40;25.20
23311;DHT22;11828;51.508;18.118;2023-04-06T01:03:16;19.50;25.00
23311;DHT22;11828;51.508;18.118;2023-04-06T01:05:42;19.50;24.70
23311;DHT22;11828;51.508;18.118;2023-04-06T01:08:09;19.40;24.90
23311;DHT22;11828;51.508;18.118;2023-04-06T01:10:36;19.50;25.20
23311;DHT22;11828;51.508;18.118;2023-04-06T01:13:02;19.50;25.30
23311;DHT22;11828;51.508;18.118;2023-04-06T01:15:28;19.50;25.40
23311;DHT22;11828;51.508;18.118;2023-04-06T01:17:55;19.40;25.40
23311;DHT22;11828;51.508;18.118;2023-04-06T01:20:21;19.40;25.20
23311;DHT22;11828;51.508;18.118;2023-04-06T01:22:48;19.10;25.30
23311;DHT22;11828;51.508;18.118;2023-04-06T01:25:14;19.10;24.70
23311;DHT22;11828;51.508;18.118;2023-04-06T01:27:40;19.10;24.80
23311;DHT22;11828;51.508;18.118;2023-04-06T01:30:06;19.10;24.90
23311;DHT22;11828;51.508;18.118;2023-04-06T01:32:33;19.00;25.00
23311;DHT22;11828;51.508;18.118;2023-04-06T01:35:00;19.10;25.20
23311;DHT22;11828;51.508;18.118;2023-04-06T01:37:26;19.10;25.30
23311;DHT22;11828;51.508;18.118;2023-04-06T01:39:52;19.10;25.30
23311;DHT22;11828;51.508;18.118;2023-04-06T01:42:19;19.10;25.10
23311;DHT22;11828;51.508;18.118;2023-04-06T01:44:45;19.10;25.00
23311;DHT22;11828;51.508;18.118;2023-04-06T01:47:11;19.20;25.00
23311;DHT22;11828;51.508;18.118;2023-04-06T01:49:37;19.20;24.90
23311;DHT22;11828;51.508;18.118;2023-04-06T01:52:04;19.00;24.70
23311;DHT22;11828;51.508;18.118;2023-04-06T01:54:30;19.00;24.80
23311;DHT22;11828;51.508;18.118;2023-04-06T01:56:56;19.00;24.80
23311;DHT22;11828;51.508;18.118;2023-04-06T01:59:22;19.10;25.00
23311;DHT22;11828;51.508;18.118;2023-04-06T02:01:48;19.10;25.20
23311;DHT22;11828;51.508;18.118;2023-04-06T02:04:14;19.10;25.20
23311;DHT22;11828;51.508;18.118;2023-04-06T02:06:41;19.10;25.10
23311;DHT22;11828;51.508;18.118;2023-04-06T02:09:07;19.10;25.10
23311;DHT22;11828;51.508;18.118;2023-04-06T02:11:33;19.10;25.00
23311;DHT22;11828;51.508;18.118;2023-04-06T02:13:59;19.10;25.00
23311;DHT22;11828;51.508;18.118;2023-04-06T02:16:26;19.10;24.90
23311;DHT22;11828;51.508;18.118;2023-04-06T02:18:52;19.10;24.90
23311;DHT22;11828;51.508;18.118;2023-04-06T02:21:19;19.00;25.30
23311;DHT22;11828;51.508;18.118;2023-04-06T02:23:46;19.00;24.70
23311;DHT22;11828;51.508;18.118;2023-04-06T02:26:13;18.90;24.70
23311;DHT22;11828;51.508;18.118;2023-04-06T02:28:40;18.90;25.40
23311;DHT22;11828;51.508;18.118;2023-04-06T02:31:07;18.80;24.90
23311;DHT22;11828;51.508;18.118;2023-04-06T02:33:33;18.80;25.10
23311;DHT22;11828;51.508;18.118;2023-04-06T02:35:59;18.80;25.10
23311;DHT22;11828;51.508;18.118;2023-04-06T02:38:25;18.80;25.10
23311;DHT22;11828;51.508;18.118;2023-04-06T02:40:51;18.70;25.00
23311;DHT22;11828;51.508;18.118;2023-04-06T02:43:19;18.60;25.30
23311;DHT22;11828;51.508;18.118;2023-04-06T02:45:45;18.70;25.50
23311;DHT22;11828;51.508;18.118;2023-04-06T02:48:11;18.70;25.50
23311;DHT22;11828;51.508;18.118;2023-04-06T02:50:38;18.60;25.60
23311;DHT22;11828;51.508;18.118;2023-04-06T02:53:04;18.50;25.80
23311;DHT22;11828;51.508;18.118;2023-04-06T02:55:30;18.50;25.90
23311;DHT22;11828;51.508;18.118;2023-04-06T02:57:56;18.50;26.00
23311;DHT22;11828;51.508;18.118;2023-04-06T03:00:22;18.40;26.20
23311;DHT22;11828;51.508;18.118;2023-04-06T03:02:48;18.30;26.20
23311;DHT22;11828;51.508;18.118;2023-04-06T03:05:15;18.30;26.90
23311;DHT22;11828;51.508;18.118;2023-04-06T03:07:41;18.20;26.50
23311;DHT22;11828;51.508;18.118;2023-04-06T03:10:08;18.20;26.70
23311;DHT22;11828;51.508;18.118;2023-04-06T03:12:35;18.10;26.80
23311;DHT22;11828;51.508;18.118;2023-04-06T03:15:01;18.10;26.80
23311;DHT22;11828;51.508;18.118;2023-04-06T03:17:28;18.00;26.80
23311;DHT22;11828;51.508;18.118;2023-04-06T03:19:54;18.00;26.70
23311;DHT22;11828;51.508;18.118;2023-04-06T03:22:20;18.00;26.80
23311;DHT22;11828;51.508;18.118;2023-04-06T03:24:46;17.90;26.90
23311;DHT22;11828;51.508;18.118;2023-04-06T03:27:12;17.80;26.90
23311;DHT22;11828;51.508;18.118;2023-04-06T03:29:39;17.80;26.90
23311;DHT22;11828;51.508;18.118;2023-04-06T03:32:05;17.80;26.90
23311;DHT22;11828;51.508;18.118;2023-04-06T03:34:31;17.80;26.80
23311;DHT22;11828;51.508;18.118;2023-04-06T03:36:57;17.80;26.70
23311;DHT22;11828;51.508;18.118;2023-04-06T03:39:24;17.80;26.70
23311;DHT22;11828;51.508;18.118;2023-04-06T03:41:50;17.80;26.70
23311;DHT22;11828;51.508;18.118;2023-04-06T03:44:16;17.80;26.70
23311;DHT22;11828;51.508;18.118;2023-04-06T03:46:42;17.80;26.60
23311;DHT22;11828;51.508;18.118;2023-04-06T03:49:08;17.80;26.70
23311;DHT22;11828;51.508;18.118;2023-04-06T03:51:35;17.70;26.30
23311;DHT22;11828;51.508;18.118;2023-04-06T03:54:01;17.80;28.30
23311;DHT22;11828;51.508;18.118;2023-04-06T03:56:27;17.70;26.80
23311;DHT22;11828;51.508;18.118;2023-04-06T03:58:53;17.70;26.80
23311;DHT22;11828;51.508;18.118;2023-04-06T04:01:20;17.60;27.30
23311;DHT22;11828;51.508;18.118;2023-04-06T04:03:46;17.60;27.00
23311;DHT22;11828;51.508;18.118;2023-04-06T04:06:12;17.60;27.10
23311;DHT22;11828;51.508;18.118;2023-04-06T04:08:38;17.60;27.10
23311;DHT22;11828;51.508;18.118;2023-04-06T04:11:04;17.60;27.00
23311;DHT22;11828;51.508;18.118;2023-04-06T04:13:30;17.60;27.50
23311;DHT22;11828;51.508;18.118;2023-04-06T04:15:56;17.60;27.00
23311;DHT22;11828;51.508;18.118;2023-04-06T04:18:24;17.70;27.00
23311;DHT22;11828;51.508;18.118;2023-04-06T04:20:50;17.70;27.00
23311;DHT22;11828;51.508;18.118;2023-04-06T04:23:16;17.70;26.90
23311;DHT22;11828;51.508;18.118;2023-04-06T04:25:43;17.80;26.90
23311;DHT22;11828;51.508;18.118;2023-04-06T04:28:09;17.70;26.90
23311;DHT22;11828;51.508;18.118;2023-04-06T04:30:35;17.80;27.00
23311;DHT22;11828;51.508;18.118;2023-04-06T04:33:02;17.80;26.90
23311;DHT22;11828;51.508;18.118;2023-04-06T04:35:28;17.70;26.80
23311;DHT22;11828;51.508;18.118;2023-04-06T04:37:54;17.80;26.70
23311;DHT22;11828;51.508;18.118;2023-04-06T04:40:20;17.80;26.50
23311;DHT22;11828;51.508;18.118;2023-04-06T04:42:48;17.80;26.50
23311;DHT22;11828;51.508;18.118;2023-04-06T04:45:14;17.90;26.50
23311;DHT22;11828;51.508;18.118;2023-04-06T04:47:40;17.90;26.40
23311;DHT22;11828;51.508;18.118;2023-04-06T04:50:07;18.00;26.20
23311;DHT22;11828;51.508;18.118;2023-04-06T04:52:33;18.00;26.10
23311;DHT22;11828;51.508;18.118;2023-04-06T04:54:59;18.00;26.10
23311;DHT22;11828;51.508;18.118;2023-04-06T04:57:26;18.00;26.10
23311;DHT22;11828;51.508;18.118;2023-04-06T04:59:52;18.00;26.60
23311;DHT22;11828;51.508;18.118;2023-04-06T05:02:18;18.00;26.10
23311;DHT22;11828;51.508;18.118;2023-04-06T05:04:45;18.10;26.20
23311;DHT22;11828;51.508;18.118;2023-04-06T05:07:11;18.10;26.00
23311;DHT22;11828;51.508;18.118;2023-04-06T05:09:37;17.10;25.60
23311;DHT22;11828;51.508;18.118;2023-04-06T05:12:04;18.10;25.90
23311;DHT22;11828;51.508;18.118;2023-04-06T05:14:30;18.10;25.90
23311;DHT22;11828;51.508;18.118;2023-04-06T05:16:56;18.10;25.90
23311;DHT22;11828;51.508;18.118;2023-04-06T05:19:22;18.10;25.90
23311;DHT22;11828;51.508;18.118;2023-04-06T05:21:49;18.20;25.80
23311;DHT22;11828;51.508;18.118;2023-04-06T05:24:15;18.20;25.80
23311;DHT22;11828;51.508;18.118;2023-04-06T05:26:41;18.30;25.70
23311;DHT22;11828;51.508;18.118;2023-04-06T05:29:07;18.40;25.70
23311;DHT22;11828;51.508;18.118;2023-04-06T05:31:33;18.40;25.60
23311;DHT22;11828;51.508;18.118;2023-04-06T05:34:00;18.50;25.60
23311;DHT22;11828;51.508;18.118;2023-04-06T05:36:26;18.50;25.50
23311;DHT22;11828;51.508;18.118;2023-04-06T05:38:52;18.70;25.70
23311;DHT22;11828;51.508;18.118;2023-04-06T05:41:18;18.70;25.50
23311;DHT22;11828;51.508;18.118;2023-04-06T05:43:46;18.80;25.60
23311;DHT22;11828;51.508;18.118;2023-04-06T05:46:12;19.00;25.50
23311;DHT22;11828;51.508;18.118;2023-04-06T05:48:38;19.00;25.90
23311;DHT22;11828;51.508;18.118;2023-04-06T05:51:05;19.20;25.30
23311;DHT22;11828;51.508;18.118;2023-04-06T05:53:32;19.30;25.30
23311;DHT22;11828;51.508;18.118;2023-04-06T05:56:02;19.40;25.30
23311;DHT22;11828;51.508;18.118;2023-04-06T05:58:29;19.50;25.40
23311;DHT22;11828;51.508;18.118;2023-04-06T06:01:01;19.60;25.30
23311;DHT22;11828;51.508;18.118;2023-04-06T06:03:29;19.80;25.30
23311;DHT22;11828;51.508;18.118;2023-04-06T06:06:02;19.90;25.20
23311;DHT22;11828;51.508;18.118;2023-04-06T06:08:29;20.00;25.20
23311;DHT22;11828;51.508;18.118;2023-04-06T06:10:56;20.20;25.30
23311;DHT22;11828;51.508;18.118;2023-04-06T06:13:23;20.30;25.10
23311;DHT22;11828;51.508;18.118;2023-04-06T06:15:50;20.40;25.00
23311;DHT22;11828;51.508;18.118;2023-04-06T06:18:16;20.50;24.90
23311;DHT22;11828;51.508;18.118;2023-04-06T06:20:42;20.70;24.90
23311;DHT22;11828;51.508;18.118;2023-04-06T06:23:08;20.80;24.80
23311;DHT22;11828;51.508;18.118;2023-04-06T06:25:35;21.00;24.70
23311;DHT22;11828;51.508;18.118;2023-04-06T06:28:01;21.10;24.50
23311;DHT22;11828;51.508;18.118;2023-04-06T06:30:27;21.30;24.60
23311;DHT22;11828;51.508;18.118;2023-04-06T06:32:53;21.60;24.40
23311;DHT22;11828;51.508;18.118;2023-04-06T06:35:19;21.90;24.20
23311;DHT22;11828;51.508;18.118;2023-04-06T06:37:45;22.20;24.00
23311;DHT22;11828;51.508;18.118;2023-04-06T06:40:12;22.60;24.10
23311;DHT22;11828;51.508;18.118;2023-04-06T06:42:43;23.00;23.70
23311;DHT22;11828;51.508;18.118;2023-04-06T06:45:09;23.40;23.50
23311;DHT22;11828;51.508;18.118;2023-04-06T06:47:35;24.00;23.20
23311;DHT22;11828;51.508;18.118;2023-04-06T06:50:02;24.50;22.80
23311;DHT22;11828;51.508;18.118;2023-04-06T06:52:28;25.10;22.40
23311;DHT22;11828;51.508;18.118;2023-04-06T06:54:55;25.70;22.30
23311;DHT22;11828;51.508;18.118;2023-04-06T06:57:22;26.40;21.90
23311;DHT22;11828;51.508;18.118;2023-04-06T06:59:48;27.00;21.40
23311;DHT22;11828;51.508;18.118;2023-04-06T07:02:14;27.60;20.90
23311;DHT22;11828;51.508;18.118;2023-04-06T07:04:41;28.20;20.40
23311;DHT22;11828;51.508;18.118;2023-04-06T07:07:07;28.70;20.10
23311;DHT22;11828;51.508;18.118;2023-04-06T07:09:35;29.20;19.60
23311;DHT22;11828;51.508;18.118;2023-04-06T07:12:01;29.50;19.20
23311;DHT22;11828;51.508;18.118;2023-04-06T07:14:27;29.90;18.80
23311;DHT22;11828;51.508;18.118;2023-04-06T07:16:53;30.00;18.50
23311;DHT22;11828;51.508;18.118;2023-04-06T07:19:20;30.40;18.60
23311;DHT22;11828;51.508;18.118;2023-04-06T07:21:46;30.80;18.10
23311;DHT22;11828;51.508;18.118;2023-04-06T07:24:12;31.30;17.50
23311;DHT22;11828;51.508;18.118;2023-04-06T07:26:38;31.60;17.20
23311;DHT22;11828;51.508;18.118;2023-04-06T07:29:04;31.80;17.20
23311;DHT22;11828;51.508;18.118;2023-04-06T07:31:31;31.90;16.70
23311;DHT22;11828;51.508;18.118;2023-04-06T07:33:57;31.80;16.50
23311;DHT22;11828;51.508;18.118;2023-04-06T07:36:23;31.70;16.20
23311;DHT22;11828;51.508;18.118;2023-04-06T07:38:50;31.70;16.10
23311;DHT22;11828;51.508;18.118;2023-04-06T07:41:16;31.60;15.90
23311;DHT22;11828;51.508;18.118;2023-04-06T07:43:42;31.60;15.80
23311;DHT22;11828;51.508;18.118;2023-04-06T07:46:09;31.60;15.70
23311;DHT22;11828;51.508;18.118;2023-04-06T07:48:35;31.70;15.60
23311;DHT22;11828;51.508;18.118;2023-04-06T07:51:04;31.80;15.50
23311;DHT22;11828;51.508;18.118;2023-04-06T07:53:30;31.80;15.10
23311;DHT22;11828;51.508;18.118;2023-04-06T07:55:58;31.70;15.10
23311;DHT22;11828;51.508;18.118;2023-04-06T07:58:24;31.80;14.90
23311;DHT22;11828;51.508;18.118;2023-04-06T08:00:50;31.60;14.70
23311;DHT22;11828;51.508;18.118;2023-04-06T08:03:17;31.30;14.70
23311;DHT22;11828;51.508;18.118;2023-04-06T08:05:46;31.10;14.60
23311;DHT22;11828;51.508;18.118;2023-04-06T08:08:12;30.90;14.30
23311;DHT22;11828;51.508;18.118;2023-04-06T08:10:38;30.90;14.80
23311;DHT22;11828;51.508;18.118;2023-04-06T08:13:05;30.80;14.60
23311;DHT22;11828;51.508;18.118;2023-04-06T08:15:31;30.70;14.60
23311;DHT22;11828;51.508;18.118;2023-04-06T08:17:57;30.70;14.90
23311;DHT22;11828;51.508;18.118;2023-04-06T08:20:23;30.60;14.40
23311;DHT22;11828;51.508;18.118;2023-04-06T08:22:50;30.40;14.00
23311;DHT22;11828;51.508;18.118;2023-04-06T08:25:16;29.80;13.90
23311;DHT22;11828;51.508;18.118;2023-04-06T08:27:42;29.70;14.40
23311;DHT22;11828;51.508;18.118;2023-04-06T08:30:08;29.70;14.80
23311;DHT22;11828;51.508;18.118;2023-04-06T08:32:35;29.90;14.70
23311;DHT22;11828;51.508;18.118;2023-04-06T08:35:01;30.00;15.30
23311;DHT22;11828;51.508;18.118;2023-04-06T08:37:27;30.30;14.70
23311;DHT22;11828;51.508;18.118;2023-04-06T08:39:53;30.50;14.30
23311;DHT22;11828;51.508;18.118;2023-04-06T08:42:21;30.40;14.50
23311;DHT22;11828;51.508;18.118;2023-04-06T08:44:49;30.30;14.20
23311;DHT22;11828;51.508;18.118;2023-04-06T08:47:17;30.00;14.00
23311;DHT22;11828;51.508;18.118;2023-04-06T08:49:44;29.70;14.90
23311;DHT22;11828;51.508;18.118;2023-04-06T08:52:12;29.80;14.60
23311;DHT22;11828;51.508;18.118;2023-04-06T08:54:38;30.10;14.50
23311;DHT22;11828;51.508;18.118;2023-04-06T08:57:05;30.40;14.40
23311;DHT22;11828;51.508;18.118;2023-04-06T08:59:33;31.70;13.60
23311;DHT22;11828;51.508;18.118;2023-04-06T09:02:03;31.70;14.20
23311;DHT22;11828;51.508;18.118;2023-04-06T09:04:34;32.50;13.90
23311;DHT22;11828;51.508;18.118;2023-04-06T09:07:01;33.30;14.20
23311;DHT22;11828;51.508;18.118;2023-04-06T09:09:27;34.10;13.50
23311;DHT22;11828;51.508;18.118;2023-04-06T09:11:54;35.00;13.20
23311;DHT22;11828;51.508;18.118;2023-04-06T09:14:35;35.50;12.60
23311;DHT22;11828;51.508;18.118;2023-04-06T09:17:02;35.50;12.30
23311;DHT22;11828;51.508;18.118;2023-04-06T09:19:29;35.40;12.20
23311;DHT22;11828;51.508;18.118;2023-04-06T09:22:05;35.00;12.30
23311;DHT22;11828;51.508;18.118;2023-04-06T09:24:45;34.90;12.50
23311;DHT22;11828;51.508;18.118;2023-04-06T09:27:14;35.00;12.40
23311;DHT22;11828;51.508;18.118;2023-04-06T09:29:41;34.60;12.20
23311;DHT22;11828;51.508;18.118;2023-04-06T09:32:09;33.80;12.40
23311;DHT22;11828;51.508;18.118;2023-04-06T09:34:39;32.90;12.50
23311;DHT22;11828;51.508;18.118;2023-04-06T09:37:16;32.00;12.80
23311;DHT22;11828;51.508;18.118;2023-04-06T09:39:45;31.40;13.10
23311;DHT22;11828;51.508;18.118;2023-04-06T09:42:23;31.10;13.50
23311;DHT22;11828;51.508;18.118;2023-04-06T09:44:51;30.90;13.50
23311;DHT22;11828;51.508;18.118;2023-04-06T09:47:18;31.00;13.60
23311;DHT22;11828;51.508;18.118;2023-04-06T09:49:46;31.30;13.80
23311;DHT22;11828;51.508;18.118;2023-04-06T09:52:14;31.90;13.60
23311;DHT22;11828;51.508;18.118;2023-04-06T09:54:42;32.10;13.40
23311;DHT22;11828;51.508;18.118;2023-04-06T10:00:09;32.70;13.30
23311;DHT22;11828;51.508;18.118;2023-04-06T10:02:44;32.50;12.90
23311;DHT22;11828;51.508;18.118;2023-04-06T10:08:15;32.50;13.20
23311;DHT22;11828;51.508;18.118;2023-04-06T10:10:42;32.80;13.00
23311;DHT22;11828;51.508;18.118;2023-04-06T10:13:11;33.50;13.10
23311;DHT22;11828;51.508;18.118;2023-04-06T10:15:38;34.40;12.90
23311;DHT22;11828;51.508;18.118;2023-04-06T10:18:06;35.00;12.70
23311;DHT22;11828;51.508;18.118;2023-04-06T10:26:11;35.80;12.20
23311;DHT22;11828;51.508;18.118;2023-04-06T10:28:41;36.30;12.40
23311;DHT22;11828;51.508;18.118;2023-04-06T10:31:08;36.50;11.80
23311;DHT22;11828;51.508;18.118;2023-04-06T10:33:35;36.40;11.90
23311;DHT22;11828;51.508;18.118;2023-04-06T10:36:11;36.30;12.00
23311;DHT22;11828;51.508;18.118;2023-04-06T10:38:38;36.10;12.10
23311;DHT22;11828;51.508;18.118;2023-04-06T10:41:08;36.00;12.00
23311;DHT22;11828;51.508;18.118;2023-04-06T10:43:37;36.10;12.10
23311;DHT22;11828;51.508;18.118;2023-04-06T10:46:06;36.20;12.00
23311;DHT22;11828;51.508;18.118;2023-04-06T10:48:44;36.20;11.90
23311;DHT22;11828;51.508;18.118;2023-04-06T10:51:17;36.10;11.70
23311;DHT22;11828;51.508;18.118;2023-04-06T10:53:46;36.00;11.50
23311;DHT22;11828;51.508;18.118;2023-04-06T10:56:18;35.70;11.50
23311;DHT22;11828;51.508;18.118;2023-04-06T10:58:49;35.30;11.40
23311;DHT22;11828;51.508;18.118;2023-04-06T11:01:20;34.90;11.60
23311;DHT22;11828;51.508;18.118;2023-04-06T11:03:51;34.60;11.90
23311;DHT22;11828;51.508;18.118;2023-04-06T11:06:25;34.30;12.20
23311;DHT22;11828;51.508;18.118;2023-04-06T11:08:55;34.10;12.50
23311;DHT22;11828;51.508;18.118;2023-04-06T11:11:24;33.90;12.40
23311;DHT22;11828;51.508;18.118;2023-04-06T11:13:57;33.70;12.70
23311;DHT22;11828;51.508;18.118;2023-04-06T11:16:31;33.40;12.40
23311;DHT22;11828;51.508;18.118;2023-04-06T11:19:00;33.20;12.60
23311;DHT22;11828;51.508;18.118;2023-04-06T11:24:19;32.80;12.90
23311;DHT22;11828;51.508;18.118;2023-04-06T11:26:58;32.40;12.70
23311;DHT22;11828;51.508;18.118;2023-04-06T11:29:29;32.10;13.20
23311;DHT22;11828;51.508;18.118;2023-04-06T11:32:01;31.90;13.00
23311;DHT22;11828;51.508;18.118;2023-04-06T11:34:37;31.60;13.20
23311;DHT22;11828;51.508;18.118;2023-04-06T11:37:11;31.60;13.50
23311;DHT22;11828;51.508;18.118;2023-04-06T11:39:39;31.50;13.40
23311;DHT22;11828;51.508;18.118;2023-04-06T11:42:06;31.40;13.70
23311;DHT22;11828;51.508;18.118;2023-04-06T11:44:34;31.60;13.30
23311;DHT22;11828;51.508;18.118;2023-04-06T11:47:07;31.80;13.60
23311;DHT22;11828;51.508;18.118;2023-04-06T11:49:40;32.00;14.00
23311;DHT22;11828;51.508;18.118;2023-04-06T11:52:21;32.30;12.70
23311;DHT22;11828;51.508;18.118;2023-04-06T11:54:51;32.30;13.00
23311;DHT22;11828;51.508;18.118;2023-04-06T11:57:20;32.40;12.80
23311;DHT22;11828;51.508;18.118;2023-04-06T11:59:50;32.60;12.80
23311;DHT22;11828;51.508;18.118;2023-04-06T12:02:17;32.90;13.10
23311;DHT22;11828;51.508;18.118;2023-04-06T12:04:44;33.10;12.90
23311;DHT22;11828;51.508;18.118;2023-04-06T12:07:10;33.10;12.80
23311;DHT22;11828;51.508;18.118;2023-04-06T12:09:36;33.20;13.40
23311;DHT22;11828;51.508;18.118;2023-04-06T12:12:03;33.50;13.00
23311;DHT22;11828;51.508;18.118;2023-04-06T12:14:29;33.70;12.80
23311;DHT22;11828;51.508;18.118;2023-04-06T12:16:57;33.80;12.90
23311;DHT22;11828;51.508;18.118;2023-04-06T12:19:23;33.70;12.90
23311;DHT22;11828;51.508;18.118;2023-04-06T12:21:55;33.40;12.70
23311;DHT22;11828;51.508;18.118;2023-04-06T12:24:23;33.00;13.00
23311;DHT22;11828;51.508;18.118;2023-04-06T12:26:49;32.40;13.30
23311;DHT22;11828;51.508;18.118;2023-04-06T12:29:16;31.90;13.40
23311;DHT22;11828;51.508;18.118;2023-04-06T12:31:42;31.30;13.60
23311;DHT22;11828;51.508;18.118;2023-04-06T12:34:10;30.90;14.00
23311;DHT22;11828;51.508;18.118;2023-04-06T12:36:37;30.40;13.90
23311;DHT22;11828;51.508;18.118;2023-04-06T12:39:05;29.90;14.00
23311;DHT22;11828;51.508;18.118;2023-04-06T12:41:31;29.60;14.40
23311;DHT22;11828;51.508;18.118;2023-04-06T12:43:58;29.20;14.50
23311;DHT22;11828;51.508;18.118;2023-04-06T12:46:25;29.10;14.60
23311;DHT22;11828;51.508;18.118;2023-04-06T12:48:52;29.20;14.90
23311;DHT22;11828;51.508;18.118;2023-04-06T12:51:22;29.50;14.60
23311;DHT22;11828;51.508;18.118;2023-04-06T12:53:48;30.00;14.70
23311;DHT22;11828;51.508;18.118;2023-04-06T12:56:18;30.60;14.50
23311;DHT22;11828;51.508;18.118;2023-04-06T12:58:45;31.30;14.00
23311;DHT22;11828;51.508;18.118;2023-04-06T13:01:11;32.00;13.90
23311;DHT22;11828;51.508;18.118;2023-04-06T13:03:39;32.80;13.90
23311;DHT22;11828;51.508;18.118;2023-04-06T13:06:07;33.60;13.70
23311;DHT22;11828;51.508;18.118;2023-04-06T13:08:37;34.10;13.30
23311;DHT22;11828;51.508;18.118;2023-04-06T13:11:05;34.60;13.10
23311;DHT22;11828;51.508;18.118;2023-04-06T13:13:34;34.90;12.90
23311;DHT22;11828;51.508;18.118;2023-04-06T13:16:05;34.90;12.90
23311;DHT22;11828;51.508;18.118;2023-04-06T13:18:34;34.70;12.80
23311;DHT22;11828;51.508;18.118;2023-04-06T13:21:01;34.30;12.70
23311;DHT22;11828;51.508;18.118;2023-04-06T13:23:27;34.10;13.00
23311;DHT22;11828;51.508;18.118;2023-04-06T13:26:06;33.90;12.60
23311;DHT22;11828;51.508;18.118;2023-04-06T13:28:34;33.70;12.90
23311;DHT22;11828;51.508;18.118;2023-04-06T13:31:03;33.60;13.30
23311;DHT22;11828;51.508;18.118;2023-04-06T13:33:30;33.50;13.30
23311;DHT22;11828;51.508;18.118;2023-04-06T13:35:57;33.40;13.20
23311;DHT22;11828;51.508;18.118;2023-04-06T13:38:24;33.40;13.50
23311;DHT22;11828;51.508;18.118;2023-04-06T13:40:50;33.30;13.30
23311;DHT22;11828;51.508;18.118;2023-04-06T13:43:17;33.30;13.40
23311;DHT22;11828;51.508;18.118;2023-04-06T13:46:04;33.20;13.40
23311;DHT22;11828;51.508;18.118;2023-04-06T13:48:30;33.20;13.40
23311;DHT22;11828;51.508;18.118;2023-04-06T13:50:57;33.10;13.30
23311;DHT22;11828;51.508;18.118;2023-04-06T13:53:23;32.70;13.50
23311;DHT22;11828;51.508;18.118;2023-04-06T13:55:55;32.10;13.50
23311;DHT22;11828;51.508;18.118;2023-04-06T13:58:21;31.60;13.80
23311;DHT22;11828;51.508;18.118;2023-04-06T14:00:48;31.10;14.00
23311;DHT22;11828;51.508;18.118;2023-04-06T14:03:14;30.80;14.80
23311;DHT22;11828;51.508;18.118;2023-04-06T14:05:40;30.60;14.30
23311;DHT22;11828;51.508;18.118;2023-04-06T14:08:06;30.40;14.40
23311;DHT22;11828;51.508;18.118;2023-04-06T14:10:39;30.40;14.50
23311;DHT22;11828;51.508;18.118;2023-04-06T14:13:08;30.40;14.70
23311;DHT22;11828;51.508;18.118;2023-04-06T14:15:34;30.40;14.70
23311;DHT22;11828;51.508;18.118;2023-04-06T14:18:01;30.40;14.40
23311;DHT22;11828;51.508;18.118;2023-04-06T14:20:27;30.10;14.40
23311;DHT22;11828;51.508;18.118;2023-04-06T14:22:53;30.00;14.70
23311;DHT22;11828;51.508;18.118;2023-04-06T14:25:21;29.80;15.10
23311;DHT22;11828;51.508;18.118;2023-04-06T14:27:47;29.60;15.20
23311;DHT22;11828;51.508;18.118;2023-04-06T14:30:14;29.40;15.50
23311;DHT22;11828;51.508;18.118;2023-04-06T14:32:40;29.20;15.50
23311;DHT22;11828;51.508;18.118;2023-04-06T14:35:06;29.00;15.40
23311;DHT22;11828;51.508;18.118;2023-04-06T14:37:33;28.80;15.40
23311;DHT22;11828;51.508;18.118;2023-04-06T14:39:59;28.60;15.50
23311;DHT22;11828;51.508;18.118;2023-04-06T14:42:25;28.40;15.70
23311;DHT22;11828;51.508;18.118;2023-04-06T14:44:51;28.20;16.00
23311;DHT22;11828;51.508;18.118;2023-04-06T14:47:19;27.90;16.00
23311;DHT22;11828;51.508;18.118;2023-04-06T14:49:50;27.50;16.20
23311;DHT22;11828;51.508;18.118;2023-04-06T14:52:16;27.40;16.50
23311;DHT22;11828;51.508;18.118;2023-04-06T14:54:43;27.20;16.40
23311;DHT22;11828;51.508;18.118;2023-04-06T14:57:09;27.00;16.50
23311;DHT22;11828;51.508;18.118;2023-04-06T14:59:35;26.80;16.70
23311;DHT22;11828;51.508;18.118;2023-04-06T15:02:03;26.60;16.60
23311;DHT22;11828;51.508;18.118;2023-04-06T15:04:29;26.50;16.90
23311;DHT22;11828;51.508;18.118;2023-04-06T15:06:55;26.40;16.80
23311;DHT22;11828;51.508;18.118;2023-04-06T15:09:22;26.30;16.80
23311;DHT22;11828;51.508;18.118;2023-04-06T15:11:48;26.10;17.20
23311;DHT22;11828;51.508;18.118;2023-04-06T15:14:14;25.90;17.30
23311;DHT22;11828;51.508;18.118;2023-04-06T15:16:41;25.70;17.50
23311;DHT22;11828;51.508;18.118;2023-04-06T15:19:07;25.60;17.70
23311;DHT22;11828;51.508;18.118;2023-04-06T15:21:34;25.40;17.60
23311;DHT22;11828;51.508;18.118;2023-04-06T15:24:00;25.40;17.60
23311;DHT22;11828;51.508;18.118;2023-04-06T15:26:27;25.30;17.70
23311;DHT22;11828;51.508;18.118;2023-04-06T15:28:54;25.20;17.90
23311;DHT22;11828;51.508;18.118;2023-04-06T15:31:20;25.20;18.10
23311;DHT22;11828;51.508;18.118;2023-04-06T15:33:46;25.20;18.40
23311;DHT22;11828;51.508;18.118;2023-04-06T15:36:38;25.10;18.40